createdAt,value
2023-02-24T00:00:09.876Z,4.3
2023-02-24T00:01:19.823Z,4.3
2023-02-24T00:02:29.409Z,4.6
2023-02-24T00:03:39.174Z,4.4
2023-02-24T00:04:48.867Z,4.8
2023-02-24T00:05:58.588Z,4.4
2023-02-24T00:07:06.306Z,4.5
2023-02-24T00:08:16.014Z,4.7
2023-02-24T00:09:24.782Z,4.2
2023-02-24T00:10:33.486Z,4.2
2023-02-24T00:11:43.180Z,4.5
2023-02-24T00:12:51.929Z,3.7
2023-02-24T00:14:01.629Z,3.9
2023-02-24T00:15:10.520Z,3.4
2023-02-24T00:16:19.280Z,3.1
2023-02-24T00:17:29.070Z,3.7
2023-02-24T00:18:38.746Z,2.9
2023-02-24T00:19:48.502Z,3.5
2023-02-24T00:20:58.250Z,3
2023-02-24T00:22:05.989Z,2.5
2023-02-24T00:23:14.656Z,3.3
2023-02-24T00:24:24.438Z,3
2023-02-24T00:25:32.129Z,2.2
2023-02-24T00:26:41.948Z,2.4
2023-02-24T00:27:50.667Z,2.6
2023-02-24T00:28:59.490Z,2.9
2023-02-24T00:30:09.275Z,2.8
2023-02-24T00:31:19.661Z,2.3
2023-02-24T00:32:28.982Z,2.9
2023-02-24T00:33:38.512Z,3.6
2023-02-24T00:34:47.271Z,2.7
2023-02-24T00:35:57.039Z,2.6
2023-02-24T00:37:05.847Z,2.9
2023-02-24T00:38:15.572Z,2.9
2023-02-24T00:39:25.295Z,3.4
2023-02-24T00:40:34.142Z,3.3
2023-02-24T00:41:43.855Z,3.5
2023-02-24T00:42:53.667Z,3.3
2023-02-24T00:44:02.363Z,2.4
2023-02-24T00:45:12.098Z,2.8
2023-02-24T00:46:20.876Z,2.5
2023-02-24T00:47:30.577Z,2.2
2023-02-24T00:48:40.242Z,2.2
2023-02-24T00:49:49.983Z,2.2
2023-02-24T00:50:59.711Z,3.1
2023-02-24T00:52:09.479Z,2.3
2023-02-24T00:53:19.227Z,2
2023-02-24T00:54:27.907Z,2.1
2023-02-24T00:55:36.616Z,2.3
2023-02-24T00:56:46.328Z,2
2023-02-24T00:57:56.068Z,2.2
2023-02-24T00:59:03.760Z,2.1
2023-02-24T01:00:13.489Z,2.2
2023-02-24T01:01:22.462Z,2.3
2023-02-24T01:02:31.027Z,2.2
2023-02-24T01:03:40.784Z,2.6
2023-02-24T01:04:49.438Z,2.2
2023-02-24T01:05:59.208Z,2.1
2023-02-24T01:07:07.958Z,2.1
2023-02-24T01:08:16.661Z,2
2023-02-24T01:09:26.402Z,2.1
2023-02-24T01:10:35.107Z,2.5
2023-02-24T01:11:44.867Z,2.6
2023-02-24T01:12:54.579Z,2.6
2023-02-24T01:14:04.280Z,2.4
2023-02-24T01:15:14.012Z,2.4
2023-02-24T01:16:23.752Z,2.6
2023-02-24T01:17:33.412Z,2.7
2023-02-24T01:18:43.115Z,2.7
2023-02-24T01:19:52.808Z,2.2
2023-02-24T01:21:02.479Z,2.6
2023-02-24T01:22:12.167Z,2.4
2023-02-24T01:23:21.947Z,2.5
2023-02-24T01:24:32.638Z,2.3
2023-02-24T01:25:42.621Z,2.3
2023-02-24T01:26:52.021Z,1.9
2023-02-24T01:28:01.737Z,2.2
2023-02-24T01:29:11.416Z,1.7
2023-02-24T01:30:21.119Z,1.8
2023-02-24T01:31:30.920Z,1.8
2023-02-24T01:32:39.605Z,1.8
2023-02-24T01:33:49.251Z,1.7
2023-02-24T01:34:57.977Z,1.8
2023-02-24T01:36:06.659Z,1.8
2023-02-24T01:37:16.679Z,1.5
2023-02-24T01:38:25.059Z,1.6
2023-02-24T01:39:34.747Z,2
2023-02-24T01:40:44.463Z,1.6
2023-02-24T01:41:52.169Z,1.9
2023-02-24T01:43:01.947Z,1.8
2023-02-24T01:44:11.638Z,1.6
2023-02-24T01:45:20.418Z,1.9
2023-02-24T01:46:30.176Z,2
2023-02-24T01:47:37.855Z,1.7
2023-02-24T01:48:47.565Z,2.3
2023-02-24T01:49:56.290Z,1.9
2023-02-24T01:51:04.986Z,1.7
2023-02-24T01:52:14.712Z,1.8
2023-02-24T01:53:23.472Z,1.7
2023-02-24T01:54:32.160Z,1.8
2023-02-24T01:55:41.877Z,1.6
2023-02-24T01:56:49.569Z,1.7
2023-02-24T01:57:59.306Z,2.1
2023-02-24T01:59:07.998Z,1.8
2023-02-24T02:00:15.830Z,2.1
2023-02-24T02:01:25.620Z,2.4
2023-02-24T02:02:35.701Z,2.1
2023-02-24T02:03:43.405Z,2.2
2023-02-24T02:04:53.186Z,2.3
2023-02-24T02:06:03.930Z,2
2023-02-24T02:07:13.604Z,2.1
2023-02-24T02:08:23.337Z,1.9
2023-02-24T02:09:33.017Z,2.5
2023-02-24T02:10:42.709Z,2.3
2023-02-24T02:11:52.443Z,2.2
2023-02-24T02:13:01.463Z,2.5
2023-02-24T02:14:11.188Z,2.6
2023-02-24T02:15:18.911Z,1.9
2023-02-24T02:16:28.725Z,2.6
2023-02-24T02:17:38.353Z,2.6
2023-02-24T02:18:47.054Z,2.8
2023-02-24T02:19:56.800Z,2.6
2023-02-24T02:21:05.563Z,2.5
2023-02-24T02:22:14.251Z,2.5
2023-02-24T02:23:24.018Z,2.4
2023-02-24T02:24:31.714Z,2.5
2023-02-24T02:25:41.409Z,2.3
2023-02-24T02:26:51.117Z,2.4
2023-02-24T02:27:58.859Z,2.2
2023-02-24T02:29:08.640Z,1.8
2023-02-24T02:30:17.383Z,2
2023-02-24T02:31:26.459Z,2
2023-02-24T02:32:35.980Z,1.8
2023-02-24T02:33:44.561Z,1.7
2023-02-24T02:34:58.035Z,1.7
2023-02-24T02:36:07.338Z,1.9
2023-02-24T02:37:17.044Z,1.9
2023-02-24T02:38:26.802Z,1.8
2023-02-24T02:39:35.480Z,2
2023-02-24T02:40:44.189Z,1.9
2023-02-24T02:41:52.892Z,2.1
2023-02-24T02:43:02.636Z,2.1
2023-02-24T02:44:12.566Z,2
2023-02-24T02:45:22.271Z,2.3
2023-02-24T02:46:29.965Z,2.3
2023-02-24T02:47:39.745Z,2.1
2023-02-24T02:48:47.510Z,2.4
2023-02-24T02:49:57.243Z,2.2
2023-02-24T02:51:07.015Z,2.1
2023-02-24T02:52:16.142Z,2.6
2023-02-24T02:53:26.598Z,2.2
2023-02-24T02:54:35.301Z,2.5
2023-02-24T02:55:43.994Z,2.4
2023-02-24T02:56:53.714Z,2.2
2023-02-24T02:58:09.413Z,2.6
2023-02-24T02:59:18.111Z,2.5
2023-02-24T03:00:27.816Z,2.5
2023-02-24T03:01:36.544Z,2.6
2023-02-24T03:02:46.235Z,2.3
2023-02-24T03:03:54.998Z,2.8
2023-02-24T03:05:04.802Z,2.9
2023-02-24T03:06:14.432Z,2.5
2023-02-24T03:07:24.119Z,3
2023-02-24T03:08:33.863Z,2.6
2023-02-24T03:09:42.565Z,2.4
2023-02-24T03:10:51.271Z,2.3
2023-02-24T03:12:00.991Z,2.2
2023-02-24T03:13:09.697Z,1.8
2023-02-24T03:14:19.445Z,2
2023-02-24T03:15:29.130Z,2.1
2023-02-24T03:16:37.917Z,2.5
2023-02-24T03:17:47.624Z,2
2023-02-24T03:18:57.363Z,2.6
2023-02-24T03:20:07.061Z,2.2
2023-02-24T03:21:16.754Z,2.1
2023-02-24T03:22:26.487Z,2.1
2023-02-24T03:23:36.246Z,2.2
2023-02-24T03:24:44.969Z,1.8
2023-02-24T03:25:53.716Z,2.2
2023-02-24T03:27:03.404Z,1.8
2023-02-24T03:28:11.076Z,1.9
2023-02-24T03:29:19.937Z,1.9
2023-02-24T03:30:29.743Z,2.2
2023-02-24T03:31:38.494Z,1.9
2023-02-24T03:32:48.266Z,2.1
2023-02-24T03:33:58.863Z,2
2023-02-24T03:35:06.568Z,2
2023-02-24T03:36:17.242Z,1.9
2023-02-24T03:37:25.960Z,1.4
2023-02-24T03:38:35.611Z,1.7
2023-02-24T03:39:45.395Z,1.7
2023-02-24T03:40:54.100Z,1.9
2023-02-24T03:42:03.795Z,1.5
2023-02-24T03:43:13.526Z,2.3
2023-02-24T03:44:22.176Z,1.6
2023-02-24T03:45:31.905Z,2.1
2023-02-24T03:46:40.575Z,2.1
2023-02-24T03:47:49.271Z,1.7
2023-02-24T03:48:59.034Z,2.2
2023-02-24T03:50:08.815Z,2
2023-02-24T03:51:18.763Z,2.2
2023-02-24T03:52:28.282Z,2
2023-02-24T03:53:36.928Z,2.3
2023-02-24T03:54:47.617Z,2.1
2023-02-24T03:55:57.304Z,2.3
2023-02-24T03:57:05.967Z,1.9
2023-02-24T03:58:15.626Z,2
2023-02-24T03:59:25.350Z,1.9
2023-02-24T04:00:35.080Z,1.7
2023-02-24T04:01:44.719Z,1.8
2023-02-24T04:02:54.430Z,2
2023-02-24T04:04:03.122Z,2.1
2023-02-24T04:05:12.906Z,2
2023-02-24T04:06:22.592Z,2.2
2023-02-24T04:07:32.358Z,2
2023-02-24T04:08:41.075Z,1.7
2023-02-24T04:09:50.775Z,2
2023-02-24T04:11:00.521Z,2.3
2023-02-24T04:12:09.237Z,1.8
2023-02-24T04:13:18.957Z,2.3
2023-02-24T04:14:27.650Z,2.2
2023-02-24T04:15:37.451Z,2.1
2023-02-24T04:16:47.120Z,1.8
2023-02-24T04:17:56.824Z,2
2023-02-24T04:19:06.564Z,1.9
2023-02-24T04:20:15.308Z,1.9
2023-02-24T04:21:25.184Z,1.8
2023-02-24T04:22:34.943Z,2.2
2023-02-24T04:23:43.677Z,2.1
2023-02-24T04:24:53.493Z,1.8
2023-02-24T04:26:03.198Z,2.2
2023-02-24T04:27:11.862Z,1.8
2023-02-24T04:28:21.596Z,2.1
2023-02-24T04:29:31.302Z,1.6
2023-02-24T04:30:39.067Z,1.6
2023-02-24T04:31:48.932Z,1.5
2023-02-24T04:32:58.673Z,1.9
2023-02-24T04:34:07.301Z,1.7
2023-02-24T04:35:17.039Z,1.6
2023-02-24T04:36:26.690Z,1.8
2023-02-24T04:37:36.369Z,1.7
2023-02-24T04:38:46.059Z,1.7
2023-02-24T04:39:55.811Z,1.5
2023-02-24T04:41:05.515Z,1.7
2023-02-24T04:42:15.220Z,1.3
2023-02-24T04:43:24.956Z,1.6
2023-02-24T04:44:34.671Z,1.6
2023-02-24T04:45:43.349Z,1.7
2023-02-24T04:46:53.043Z,1.9
2023-02-24T04:48:02.787Z,1.9
2023-02-24T04:49:11.465Z,1.6
2023-02-24T04:50:21.201Z,2.3
2023-02-24T04:51:29.907Z,1.6
2023-02-24T04:52:39.576Z,1.8
2023-02-24T04:53:49.315Z,2.1
2023-02-24T04:54:57.014Z,1.7
2023-02-24T04:56:06.765Z,1.6
2023-02-24T04:57:15.506Z,1.8
2023-02-24T04:58:24.170Z,1.9
2023-02-24T04:59:33.866Z,1.8
2023-02-24T05:00:41.590Z,2.3
2023-02-24T05:01:49.256Z,2
2023-02-24T05:02:56.948Z,2.4
2023-02-24T05:04:05.720Z,2.5
2023-02-24T05:05:15.329Z,2.7
2023-02-24T05:06:25.026Z,2.8
2023-02-24T05:07:42.940Z,2.8
2023-02-24T05:08:51.718Z,2.8
2023-02-24T05:10:01.443Z,2.8
2023-02-24T05:11:11.183Z,3
2023-02-24T05:12:20.911Z,2.7
2023-02-24T05:13:30.627Z,2.3
2023-02-24T05:14:40.386Z,2.5
2023-02-24T05:15:50.165Z,2
2023-02-24T05:16:59.839Z,2.5
2023-02-24T05:18:08.574Z,2.4
2023-02-24T05:19:18.332Z,2.6
2023-02-24T05:20:28.037Z,3
2023-02-24T05:21:37.971Z,2.6
2023-02-24T05:22:46.667Z,3.1
2023-02-24T05:23:56.392Z,2.6
2023-02-24T05:25:06.062Z,2.6
2023-02-24T05:26:15.777Z,3
2023-02-24T05:27:25.522Z,3.2
2023-02-24T05:28:34.179Z,2.8
2023-02-24T05:29:43.856Z,3.1
2023-02-24T05:30:52.715Z,2.9
2023-02-24T05:32:02.701Z,3
2023-02-24T05:33:11.174Z,3
2023-02-24T05:34:18.854Z,3.4
2023-02-24T05:35:28.704Z,3.5
2023-02-24T05:36:38.392Z,3.2
2023-02-24T05:37:48.067Z,3.2
2023-02-24T05:38:57.741Z,3.2
2023-02-24T05:40:06.484Z,3
2023-02-24T05:41:16.215Z,2.2
2023-02-24T05:42:25.912Z,2.7
2023-02-24T05:43:35.722Z,2.4
2023-02-24T05:44:45.384Z,2.2
2023-02-24T05:45:54.193Z,2.6
2023-02-24T05:47:02.002Z,2.6
2023-02-24T05:48:10.668Z,2.3
2023-02-24T05:49:18.367Z,2.3
2023-02-24T05:50:27.115Z,2.3
2023-02-24T05:51:36.849Z,2.2
2023-02-24T05:52:45.542Z,2.3
2023-02-24T05:53:55.280Z,2.6
2023-02-24T05:55:04.046Z,2.6
2023-02-24T05:56:12.785Z,2.1
2023-02-24T05:57:22.475Z,3.2
2023-02-24T05:58:31.188Z,2.9
2023-02-24T05:59:40.926Z,2.7
2023-02-24T06:00:50.589Z,2.9
2023-02-24T06:01:59.346Z,3
2023-02-24T06:03:09.025Z,3
2023-02-24T06:04:17.711Z,2.9
2023-02-24T06:05:25.395Z,2.2
2023-02-24T06:06:35.195Z,2.9
2023-02-24T06:07:43.879Z,2.7
2023-02-24T06:08:52.621Z,2.1
2023-02-24T06:10:02.324Z,2.7
2023-02-24T06:11:12.030Z,1.7
2023-02-24T06:12:21.829Z,2.9
2023-02-24T06:13:30.576Z,1.8
2023-02-24T06:14:38.301Z,2.9
2023-02-24T06:15:48.020Z,2.6
2023-02-24T06:16:55.814Z,2.6
2023-02-24T06:18:05.490Z,2.3
2023-02-24T06:19:17.308Z,2.3
2023-02-24T06:20:24.916Z,2.6
2023-02-24T06:21:34.701Z,3.1
2023-02-24T06:22:44.447Z,3
2023-02-24T06:23:54.137Z,2.8
2023-02-24T06:25:03.861Z,3.2
2023-02-24T06:26:13.586Z,3.2
2023-02-24T06:27:23.348Z,3.3
2023-02-24T06:28:33.067Z,3.4
2023-02-24T06:29:40.742Z,3.5
2023-02-24T06:30:50.494Z,3.8
2023-02-24T06:32:00.452Z,3.7
2023-02-24T06:33:10.053Z,3.6
2023-02-24T06:34:19.838Z,3
2023-02-24T06:35:29.623Z,3.8
2023-02-24T06:36:38.359Z,3
2023-02-24T06:37:48.083Z,4.4
2023-02-24T06:38:55.754Z,4
2023-02-24T06:40:05.444Z,3.2
2023-02-24T06:41:15.163Z,4.3
2023-02-24T06:42:22.865Z,4
2023-02-24T06:43:32.551Z,3.8
2023-02-24T06:44:42.258Z,3.7
2023-02-24T06:45:51.052Z,2.8
2023-02-24T06:46:59.784Z,3
2023-02-24T06:48:08.453Z,3.5
2023-02-24T06:49:18.177Z,3.8
2023-02-24T06:50:26.845Z,3.9
2023-02-24T06:51:34.527Z,3.3
2023-02-24T06:52:44.256Z,2.8
2023-02-24T06:53:52.955Z,4.4
2023-02-24T06:55:01.659Z,4
2023-02-24T06:56:11.361Z,3.7
2023-02-24T06:57:20.059Z,3.6
2023-02-24T06:58:29.718Z,3
2023-02-24T06:59:38.365Z,4.3
2023-02-24T07:00:48.105Z,2.9
2023-02-24T07:01:56.764Z,4.3
2023-02-24T07:03:06.519Z,4.8
2023-02-24T07:04:16.257Z,4.8
2023-02-24T07:05:23.905Z,4.4
2023-02-24T07:06:32.615Z,4.3
2023-02-24T07:07:42.330Z,4.6
2023-02-24T07:08:50.005Z,4.5
2023-02-24T07:09:59.738Z,4.8
2023-02-24T07:11:08.417Z,4
2023-02-24T07:12:18.124Z,4.7
2023-02-24T07:13:27.819Z,5.4
2023-02-24T07:14:37.548Z,4.3
2023-02-24T07:15:46.233Z,4.6
2023-02-24T07:16:55.436Z,4.3
2023-02-24T07:18:02.704Z,3.3
2023-02-24T07:19:12.421Z,2.6
2023-02-24T07:20:21.109Z,3.2
2023-02-24T07:21:29.830Z,4.9
2023-02-24T07:22:39.525Z,4.4
2023-02-24T07:23:48.236Z,4.5
2023-02-24T07:24:57.929Z,2.9
2023-02-24T07:26:07.605Z,2
2023-02-24T07:27:16.313Z,2.2
2023-02-24T07:28:26.010Z,2.9
2023-02-24T07:29:34.716Z,2.7
2023-02-24T07:30:42.520Z,2.6
2023-02-24T07:31:52.327Z,1.9
2023-02-24T07:32:59.983Z,1.7
2023-02-24T07:34:08.681Z,1.9
2023-02-24T07:35:18.440Z,1.8
2023-02-24T07:36:29.113Z,2.1
2023-02-24T07:37:38.883Z,2.7
2023-02-24T07:38:48.615Z,2.6
2023-02-24T07:39:58.397Z,1.6
2023-02-24T07:41:07.104Z,1.5
2023-02-24T07:42:16.944Z,2.4
2023-02-24T07:43:26.603Z,2.4
2023-02-24T07:44:36.342Z,1.6
2023-02-24T07:45:45.009Z,1.7
2023-02-24T07:46:54.716Z,1.5
2023-02-24T07:48:03.422Z,1.8
2023-02-24T07:49:12.107Z,1.5
2023-02-24T07:50:21.834Z,3.6
2023-02-24T07:51:29.505Z,2.7
2023-02-24T07:52:40.158Z,1.4
2023-02-24T07:53:52.019Z,2
2023-02-24T07:54:59.555Z,1.8
2023-02-24T07:56:09.254Z,1.5
2023-02-24T07:57:19.076Z,1.3
2023-02-24T07:58:28.678Z,1.5
2023-02-24T07:59:38.357Z,1.5
2023-02-24T08:00:48.090Z,1.7
2023-02-24T08:01:57.836Z,1.7
2023-02-24T08:03:07.644Z,1.8
2023-02-24T08:04:16.342Z,2.2
2023-02-24T08:05:26.176Z,1.8
2023-02-24T08:06:35.742Z,2
2023-02-24T08:07:44.453Z,1.5
2023-02-24T08:08:54.280Z,1.9
2023-02-24T08:10:02.955Z,2
2023-02-24T08:11:12.629Z,2.1
2023-02-24T08:12:22.622Z,2.1
2023-02-24T08:13:31.089Z,1.7
2023-02-24T08:14:40.795Z,2.1
2023-02-24T08:15:49.647Z,2.1
2023-02-24T08:16:59.409Z,1.5
2023-02-24T08:18:09.058Z,1.8
2023-02-24T08:19:17.748Z,1.5
2023-02-24T08:20:27.455Z,1.4
2023-02-24T08:21:37.176Z,1.5
2023-02-24T08:22:45.865Z,2.2
2023-02-24T08:23:55.606Z,2
2023-02-24T08:25:05.310Z,2
2023-02-24T08:26:15.081Z,1.6
2023-02-24T08:27:24.682Z,2.4
2023-02-24T08:28:34.383Z,1.7
2023-02-24T08:29:44.096Z,1.7
2023-02-24T08:30:53.930Z,2
2023-02-24T08:32:02.655Z,2.1
2023-02-24T08:33:11.231Z,1.9
2023-02-24T08:34:20.946Z,1.9
2023-02-24T08:35:29.647Z,1.9
2023-02-24T08:36:39.335Z,2.5
2023-02-24T08:37:48.074Z,1.9
2023-02-24T08:38:56.763Z,2.7
2023-02-24T08:40:06.454Z,2.2
2023-02-24T08:41:13.143Z,2.2
2023-02-24T08:42:21.814Z,2
2023-02-24T08:43:31.492Z,2
2023-02-24T08:44:42.463Z,2
2023-02-24T08:45:51.911Z,1.9
2023-02-24T08:47:01.650Z,2.6
2023-02-24T08:48:10.262Z,2.2
2023-02-24T08:49:20.056Z,2.1
2023-02-24T08:50:27.773Z,1.7
2023-02-24T08:51:37.484Z,2.3
2023-02-24T08:52:47.196Z,2.2
2023-02-24T08:53:55.967Z,2.3
2023-02-24T08:55:05.643Z,2
2023-02-24T08:56:15.408Z,2
2023-02-24T08:57:24.124Z,2.1
2023-02-24T08:58:33.826Z,1.9
2023-02-24T08:59:42.565Z,1.8
2023-02-24T09:00:52.306Z,2.2
2023-02-24T09:02:04.949Z,2.2
2023-02-24T09:03:12.663Z,1.7
2023-02-24T09:04:21.462Z,2.2
2023-02-24T09:05:31.104Z,2.1
2023-02-24T09:06:40.885Z,1.8
2023-02-24T09:07:49.589Z,1.7
2023-02-24T09:08:58.304Z,2.1
2023-02-24T09:10:08.065Z,1.9
2023-02-24T09:11:17.767Z,1.7
2023-02-24T09:12:27.494Z,1.7
2023-02-24T09:13:37.217Z,1.6
2023-02-24T09:14:46.969Z,2.1
2023-02-24T09:15:55.682Z,1.5
2023-02-24T09:17:04.439Z,1.7
2023-02-24T09:18:13.153Z,1.4
2023-02-24T09:19:22.879Z,1.8
2023-02-24T09:20:31.586Z,1.9
2023-02-24T09:21:41.312Z,1.9
2023-02-24T09:22:49.990Z,2.1
2023-02-24T09:23:57.726Z,1.6
2023-02-24T09:25:07.444Z,3.1
2023-02-24T09:26:17.247Z,1.4
2023-02-24T09:27:25.909Z,2.3
2023-02-24T09:28:35.655Z,1.9
2023-02-24T09:29:44.383Z,1.3
2023-02-24T09:30:54.195Z,2.1
2023-02-24T09:32:04.030Z,1.9
2023-02-24T09:33:12.681Z,1.7
2023-02-24T09:34:21.302Z,1.5
2023-02-24T09:35:31.037Z,1.6
2023-02-24T09:36:42.572Z,1.4
2023-02-24T09:37:51.418Z,1.5
2023-02-24T09:38:59.099Z,1.2
2023-02-24T09:40:08.821Z,1.1
2023-02-24T09:41:19.176Z,1.3
2023-02-24T09:42:28.197Z,1.1
2023-02-24T09:43:37.866Z,1.2
2023-02-24T09:44:46.565Z,1.2
2023-02-24T09:45:56.364Z,1.6
2023-02-24T09:47:06.054Z,1.9
2023-02-24T09:48:16.855Z,2
2023-02-24T09:49:26.445Z,2.2
2023-02-24T09:50:59.383Z,2.5
2023-02-24T09:51:45.773Z,2.1
2023-02-24T09:52:57.697Z,1.5
2023-02-24T09:54:05.189Z,1.5
2023-02-24T09:55:13.888Z,1.6
2023-02-24T09:56:23.552Z,1.6
2023-02-24T09:57:31.326Z,1.9
2023-02-24T09:58:43.896Z,1.6
2023-02-24T09:59:51.611Z,2.1
2023-02-24T10:01:01.361Z,1.6
2023-02-24T10:02:12.159Z,1.4
2023-02-24T10:03:21.688Z,1.3
2023-02-24T10:04:31.370Z,2
2023-02-24T10:05:41.102Z,1.9
2023-02-24T10:06:49.846Z,1.6
2023-02-24T10:07:58.561Z,1.5
2023-02-24T10:09:08.289Z,1.3
2023-02-24T10:10:16.013Z,1.6
2023-02-24T10:11:25.739Z,1.8
2023-02-24T10:12:34.474Z,1.6
2023-02-24T10:13:44.153Z,1.4
2023-02-24T10:15:00.126Z,1.7
2023-02-24T10:16:07.541Z,1.6
2023-02-24T10:17:15.215Z,1.3
2023-02-24T10:18:24.929Z,1.6
2023-02-24T10:19:33.643Z,1.8
2023-02-24T10:20:43.393Z,1.8
2023-02-24T10:21:52.134Z,1.6
2023-02-24T10:23:01.787Z,1.5
2023-02-24T10:24:11.455Z,1.8
2023-02-24T10:25:21.531Z,1.4
2023-02-24T10:26:30.826Z,2
2023-02-24T10:27:39.567Z,1.7
2023-02-24T10:28:48.231Z,1.4
2023-02-24T10:29:56.922Z,2
2023-02-24T10:31:05.781Z,1.2
2023-02-24T10:32:15.698Z,1.9
2023-02-24T10:33:25.094Z,1.6
2023-02-24T10:34:32.817Z,1.7
2023-02-24T10:35:42.519Z,1.6
2023-02-24T10:36:51.224Z,1.4
2023-02-24T10:37:59.905Z,1.6
2023-02-24T10:39:09.612Z,1.5
2023-02-24T10:40:17.323Z,1.6
2023-02-24T10:41:27.025Z,1.6
2023-02-24T10:42:36.729Z,1.3
2023-02-24T10:43:44.517Z,1.5
2023-02-24T10:45:01.916Z,1.3
2023-02-24T10:46:03.810Z,1.5
2023-02-24T10:47:12.549Z,1.7
2023-02-24T10:48:26.766Z,1.2
2023-02-24T10:49:31.889Z,1.3
2023-02-24T10:50:54.011Z,1.5
2023-02-24T10:51:52.365Z,1.4
2023-02-24T10:53:00.110Z,1.9
2023-02-24T10:54:10.109Z,1.6
2023-02-24T10:55:19.431Z,1.7
2023-02-24T10:56:27.169Z,1.7
2023-02-24T10:57:42.563Z,1.5
2023-02-24T10:58:46.701Z,1.6
2023-02-24T10:59:56.352Z,1.5
2023-02-24T11:01:05.092Z,1.3
2023-02-24T11:02:14.755Z,1.3
2023-02-24T11:03:32.381Z,1.2
2023-02-24T11:04:34.098Z,1.3
2023-02-24T11:05:43.851Z,1.5
2023-02-24T11:06:53.542Z,1.5
2023-02-24T11:08:03.256Z,1.8
2023-02-24T11:09:12.965Z,1.2
2023-02-24T11:10:21.687Z,1.5
2023-02-24T11:11:31.408Z,1.8
2023-02-24T11:12:41.085Z,1.3
2023-02-24T11:13:49.782Z,1.5
2023-02-24T11:14:59.427Z,1.9
2023-02-24T11:16:09.214Z,1.6
2023-02-24T11:17:16.801Z,1.5
2023-02-24T11:18:26.483Z,1.7
2023-02-24T11:19:36.181Z,1.2
2023-02-24T11:20:49.221Z,1.7
2023-02-24T11:21:56.577Z,1.5
2023-02-24T11:23:06.216Z,1.8
2023-02-24T11:24:15.876Z,1.8
2023-02-24T11:25:25.577Z,1.6
2023-02-24T11:26:34.288Z,1.5
2023-02-24T11:27:43.968Z,1.5
2023-02-24T11:28:52.678Z,1.6
2023-02-24T11:30:01.332Z,1.3
2023-02-24T11:31:11.250Z,1
2023-02-24T11:32:19.930Z,1.3
2023-02-24T11:33:29.452Z,1.2
2023-02-24T11:34:39.142Z,1.4
2023-02-24T11:35:48.827Z,1.2
2023-02-24T11:36:58.502Z,1.3
2023-02-24T11:38:07.350Z,1.3
2023-02-24T11:39:21.105Z,1.3
2023-02-24T11:40:27.564Z,1.2
2023-02-24T11:41:36.243Z,1.4
2023-02-24T11:42:45.974Z,1.5
2023-02-24T11:43:54.690Z,1.2
2023-02-24T11:45:02.349Z,1.3
2023-02-24T11:46:12.093Z,1.5
2023-02-24T11:47:20.793Z,1.5
2023-02-24T11:48:29.479Z,1.2
2023-02-24T11:49:39.152Z,1.2
2023-02-24T11:50:47.820Z,1.6
2023-02-24T11:51:57.543Z,1.9
2023-02-24T11:53:07.240Z,1.6
2023-02-24T11:54:15.890Z,1.4
2023-02-24T11:55:27.331Z,1.2
2023-02-24T11:56:34.295Z,1.5
2023-02-24T11:57:43.965Z,1.3
2023-02-24T11:58:53.632Z,1.2
2023-02-24T12:00:02.346Z,1.4
2023-02-24T12:01:12.047Z,1.5
2023-02-24T12:02:21.741Z,1.4
2023-02-24T12:03:30.474Z,1.6
2023-02-24T12:04:40.153Z,1.2
2023-02-24T12:05:49.953Z,1.4
2023-02-24T12:06:58.567Z,1.4
2023-02-24T12:08:08.280Z,1.1
2023-02-24T12:09:17.980Z,1.8
2023-02-24T12:10:27.687Z,1.8
2023-02-24T12:11:36.360Z,1.9
2023-02-24T12:12:45.037Z,2.9
2023-02-24T12:13:54.713Z,2.1
2023-02-24T12:15:03.387Z,1.4
2023-02-24T12:16:13.197Z,1.6
2023-02-24T12:17:23.239Z,1.4
2023-02-24T12:18:31.493Z,1.6
2023-02-24T12:19:41.155Z,1.3
2023-02-24T12:20:50.932Z,1.3
2023-02-24T12:21:58.705Z,1.5
2023-02-24T12:23:08.422Z,1.4
2023-02-24T12:24:18.128Z,1.1
2023-02-24T12:25:26.853Z,1.2
2023-02-24T12:26:36.581Z,1.1
2023-02-24T12:27:45.313Z,1.1
2023-02-24T12:28:55.024Z,1.1
2023-02-24T12:30:03.740Z,1.9
2023-02-24T12:31:12.578Z,1.5
2023-02-24T12:32:22.302Z,1.8
2023-02-24T12:33:30.794Z,1.6
2023-02-24T12:34:40.481Z,1.3
2023-02-24T12:35:50.154Z,1.6
2023-02-24T12:36:58.861Z,1.5
2023-02-24T12:38:08.609Z,1.5
2023-02-24T12:39:18.319Z,1.4
2023-02-24T12:40:26.944Z,1.7
2023-02-24T12:41:37.451Z,2
2023-02-24T12:42:46.381Z,2.2
2023-02-24T12:43:55.088Z,1.9
2023-02-24T12:45:04.777Z,2
2023-02-24T12:46:12.566Z,1.9
2023-02-24T12:47:22.188Z,1.7
2023-02-24T12:48:31.955Z,1.9
2023-02-24T12:49:41.557Z,2.1
2023-02-24T12:50:51.309Z,2
2023-02-24T12:52:01.026Z,2.1
2023-02-24T12:53:11.370Z,1.7
2023-02-24T12:54:21.072Z,1.9
2023-02-24T12:55:27.740Z,2
2023-02-24T12:56:37.466Z,2.6
2023-02-24T12:57:44.125Z,2
2023-02-24T12:58:53.839Z,2.3
2023-02-24T13:00:03.480Z,2.9
2023-02-24T13:01:13.201Z,2.2
2023-02-24T13:02:22.970Z,3
2023-02-24T13:03:32.628Z,2.8
2023-02-24T13:04:42.446Z,2.6
2023-02-24T13:05:51.969Z,2.8
2023-02-24T13:07:00.711Z,2.6
2023-02-24T13:08:10.396Z,2.6
2023-02-24T13:09:19.074Z,2.3
2023-02-24T13:10:28.757Z,3
2023-02-24T13:11:38.484Z,2.5
2023-02-24T13:12:47.194Z,2.4
2023-02-24T13:13:56.893Z,2.4
2023-02-24T13:15:05.602Z,2.6
2023-02-24T13:16:14.267Z,2.1
2023-02-24T13:17:23.945Z,2.5
2023-02-24T13:18:33.691Z,2
2023-02-24T13:19:43.404Z,2.6
2023-02-24T13:20:53.069Z,2.1
2023-02-24T13:22:02.779Z,1.8
2023-02-24T13:23:12.527Z,2.1
2023-02-24T13:24:22.200Z,1.8
2023-02-24T13:25:31.898Z,1.9
2023-02-24T13:26:40.559Z,1.7
2023-02-24T13:27:49.296Z,1.9
2023-02-24T13:28:59.011Z,1.8
2023-02-24T13:30:06.699Z,1.7
2023-02-24T13:31:15.432Z,1.8
2023-02-24T13:32:25.249Z,1.6
2023-02-24T13:33:33.849Z,2
2023-02-24T13:34:43.525Z,2.3
2023-02-24T13:35:53.228Z,1.7
2023-02-24T13:37:01.987Z,2.1
2023-02-24T13:38:11.650Z,2.2
2023-02-24T13:39:20.353Z,2.1
2023-02-24T13:40:29.037Z,1.7
2023-02-24T13:41:37.734Z,1.8
2023-02-24T13:42:47.524Z,2
2023-02-24T13:43:57.249Z,1.7
2023-02-24T13:45:06.942Z,2.1
2023-02-24T13:46:16.705Z,1.8
2023-02-24T13:47:26.423Z,1.9
2023-02-24T13:48:36.165Z,2.2
2023-02-24T13:49:45.826Z,1.7
2023-02-24T13:50:55.552Z,1.7
2023-02-24T13:52:03.252Z,1.9
2023-02-24T13:53:12.969Z,1.9
2023-02-24T13:54:22.630Z,2
2023-02-24T13:55:32.370Z,1.7
2023-02-24T13:56:42.087Z,2.3
2023-02-24T13:57:51.784Z,2.2
2023-02-24T13:59:00.466Z,2.3
2023-02-24T14:00:10.169Z,2.5
2023-02-24T14:01:18.920Z,2.3
2023-02-24T14:02:28.646Z,1.7
2023-02-24T14:03:38.352Z,2.2
2023-02-24T14:04:47.059Z,1.9
2023-02-24T14:05:56.796Z,2.6
2023-02-24T14:07:05.679Z,2.5
2023-02-24T14:08:15.402Z,2.9
2023-02-24T14:09:25.111Z,3.1
2023-02-24T14:10:32.769Z,2.7
2023-02-24T14:11:42.503Z,2.4
2023-02-24T14:12:52.238Z,2.1
2023-02-24T14:14:00.953Z,2.2
2023-02-24T14:15:10.744Z,2.1
2023-02-24T14:16:19.783Z,1.9
2023-02-24T14:17:28.119Z,2.3
2023-02-24T14:18:37.811Z,2.3
2023-02-24T14:19:47.477Z,2
2023-02-24T14:20:57.181Z,2.5
2023-02-24T14:22:05.878Z,2.1
2023-02-24T14:23:14.560Z,2.6
2023-02-24T14:24:24.259Z,2.7
2023-02-24T14:25:32.972Z,2
2023-02-24T14:26:42.629Z,2.8
2023-02-24T14:27:52.356Z,2.5
2023-02-24T14:29:00.099Z,2.6
2023-02-24T14:30:09.862Z,2
2023-02-24T14:31:18.641Z,2.4
2023-02-24T14:32:26.370Z,2.3
2023-02-24T14:33:35.975Z,2.4
2023-02-24T14:34:45.711Z,2.6
2023-02-24T14:35:55.430Z,2.7
2023-02-24T14:37:05.167Z,2.1
2023-02-24T14:38:12.949Z,2
2023-02-24T14:39:22.669Z,2.4
2023-02-24T14:40:31.361Z,2.4
2023-02-24T14:41:40.116Z,2
2023-02-24T14:42:49.862Z,2.5
2023-02-24T14:43:58.568Z,1.8
2023-02-24T14:45:07.304Z,2.4
2023-02-24T14:46:17.155Z,2.7
2023-02-24T14:47:27.067Z,2.2
2023-02-24T14:48:36.793Z,2.6
2023-02-24T14:49:45.508Z,2
2023-02-24T14:50:55.236Z,2.3
2023-02-24T14:52:04.981Z,2.5
2023-02-24T14:53:15.083Z,2.6
2023-02-24T14:54:25.145Z,2.6
2023-02-24T14:55:32.946Z,2.5
2023-02-24T14:56:41.625Z,2.5
2023-02-24T14:57:51.445Z,1.8
2023-02-24T14:59:00.194Z,2.2
2023-02-24T15:00:09.882Z,2.4
2023-02-24T15:01:18.752Z,2.2
2023-02-24T15:02:28.358Z,2.5
2023-02-24T15:03:38.232Z,2.1
2023-02-24T15:04:48.068Z,2.1
2023-02-24T15:05:55.741Z,1.9
2023-02-24T15:07:05.451Z,2.5
2023-02-24T15:08:15.376Z,2
2023-02-24T15:09:25.106Z,2.3
2023-02-24T15:10:34.853Z,2.3
2023-02-24T15:11:43.538Z,2.2
2023-02-24T15:12:53.269Z,2.6
2023-02-24T15:14:01.981Z,2.5
2023-02-24T15:15:11.657Z,2.3
2023-02-24T15:16:21.680Z,2.3
2023-02-24T15:17:31.143Z,2.3
2023-02-24T15:18:40.878Z,2.6
2023-02-24T15:19:50.580Z,2.4
2023-02-24T15:20:58.377Z,1.7
2023-02-24T15:22:08.112Z,2.3
2023-02-24T15:23:15.767Z,2.6
2023-02-24T15:24:24.495Z,2.5
2023-02-24T15:25:42.568Z,3.2
2023-02-24T15:26:42.898Z,2.7
2023-02-24T15:27:53.644Z,2.9
2023-02-24T15:29:03.468Z,2.6
2023-02-24T15:30:13.202Z,2.8
2023-02-24T15:31:23.246Z,2.2
2023-02-24T15:32:32.808Z,2.7
2023-02-24T15:33:40.366Z,2.6
2023-02-24T15:34:49.061Z,2.3
2023-02-24T15:35:57.761Z,2.8
2023-02-24T15:37:09.836Z,2.4
2023-02-24T15:38:16.218Z,2.6
2023-02-24T15:39:24.014Z,2.5
2023-02-24T15:40:33.703Z,2.2
2023-02-24T15:41:43.413Z,3
2023-02-24T15:42:53.172Z,3
2023-02-24T15:44:02.907Z,2.5
2023-02-24T15:45:12.642Z,2.3
2023-02-24T15:46:22.659Z,2.4
2023-02-24T15:47:32.073Z,3.2
2023-02-24T15:48:40.895Z,2.2
2023-02-24T15:49:50.590Z,2.3
2023-02-24T15:50:59.325Z,2.4
2023-02-24T15:52:08.065Z,2.5
2023-02-24T15:53:16.735Z,2.2
2023-02-24T15:54:25.434Z,2.4
2023-02-24T15:55:35.097Z,2.5
2023-02-24T15:56:43.764Z,2.2
2023-02-24T15:57:52.445Z,2.7
2023-02-24T16:18:25.106Z,2.3
2023-02-24T16:19:33.817Z,2.6